Time;durP1;ratioP1;P1;durP2;ratioP2;P2;SDS_P1;SDS_P2;PMS_P1;PMS_P2;Temp;Humidity;BMP_temperature;BMP_pressure;BME280_temperature;BME280_humidity;BME280_pressure;Samples;Min_cycle;Max_cycle;Signal;HPM_P1;HPM_P2
2022/05/06 00:02:55;;;;;;;6.00;5.60;;;18.00;34.10;;;;;;10354842;28;20613;-74
2022/05/06 00:07:58;;;;;;;6.80;6.30;;;18.00;34.70;;;;;;10353020;28;20572;-74
2022/05/06 00:13:01;;;;;;;5.87;5.40;;;17.90;34.20;;;;;;10353804;28;20229;-74
2022/05/06 00:18:06;;;;;;;5.97;5.57;;;17.90;34.40;;;;;;10362440;28;20230;-74
2022/05/06 00:23:09;;;;;;;6.47;6.07;;;17.80;35.30;;;;;;10359650;28;20761;-75
2022/05/06 00:28:13;;;;;;;6.70;6.20;;;17.80;34.60;;;;;;10363040;28;20249;-75
2022/05/06 00:33:17;;;;;;;6.23;5.70;;;17.80;34.60;;;;;;10355950;28;20715;-74
2022/05/06 00:38:21;;;;;;;6.43;5.93;;;17.80;34.60;;;;;;10362012;28;20226;-74
2022/05/06 00:43:25;;;;;;;6.30;5.80;;;17.70;34.50;;;;;;10359196;28;20245;-74
2022/05/06 00:48:31;;;;;;;6.47;6.07;;;17.70;34.50;;;;;;10359863;28;20707;-74
2022/05/06 00:53:36;;;;;;;6.10;5.70;;;17.70;35.00;;;;;;10359239;28;20974;-74
2022/05/06 00:58:39;;;;;;;6.37;5.87;;;17.70;34.50;;;;;;10358894;28;20233;-74
2022/05/06 01:03:44;;;;;;;6.40;5.90;;;17.70;34.50;;;;;;10360547;28;20230;-74
2022/05/06 01:08:47;;;;;;;6.83;6.33;;;17.70;34.90;;;;;;10358434;28;20222;-74
2022/05/06 01:13:55;;;;;;;6.70;6.20;;;17.80;34.60;;;;;;10359656;28;20222;-74
2022/05/06 01:18:59;;;;;;;6.33;5.77;;;17.80;34.60;;;;;;10360095;28;20226;-74
2022/05/06 01:24:04;;;;;;;5.90;5.40;;;17.70;34.90;;;;;;10357660;28;20234;-74
2022/05/06 01:29:09;;;;;;;4.77;4.47;;;17.80;35.10;;;;;;10357809;28;20249;-74
2022/05/06 01:34:15;;;;;;;5.70;5.23;;;17.80;34.60;;;;;;10354640;28;20237;-74
2022/05/06 01:39:22;;;;;;;6.57;6.17;;;17.80;35.00;;;;;;10359591;28;20249;-74
2022/05/06 01:44:29;;;;;;;6.20;5.80;;;17.80;35.40;;;;;;10356002;28;20234;-74
2022/05/06 01:49:33;;;;;;;7.10;6.50;;;17.70;35.10;;;;;;10358395;28;20226;-74
2022/05/06 01:54:38;;;;;;;7.27;6.77;;;17.40;34.50;;;;;;10357349;28;20253;-74
2022/05/06 01:59:41;;;;;;;7.60;6.90;;;17.20;35.30;;;;;;10358673;28;20229;-74
2022/05/06 02:10:07;;;;;;;7.53;6.93;;;16.90;35.40;;;;;;10355680;28;20226;-74
2022/05/06 02:15:12;;;;;;;7.33;6.73;;;16.80;36.10;;;;;;10359554;28;20237;-74
2022/05/06 02:20:15;;;;;;;7.00;6.50;;;16.70;35.80;;;;;;10356096;28;20222;-74
2022/05/06 02:25:19;;;;;;;7.47;6.87;;;16.80;36.00;;;;;;10358117;28;20252;-74
2022/05/06 02:35:44;;;;;;;7.17;6.67;;;16.80;35.90;;;;;;10354962;28;20256;-74
2022/05/06 02:40:49;;;;;;;7.03;6.53;;;16.80;36.00;;;;;;10357365;28;20950;-74
2022/05/06 02:45:52;;;;;;;6.57;6.07;;;16.80;36.40;;;;;;10356357;28;20226;-74
2022/05/06 02:50:55;;;;;;;7.13;6.63;;;16.80;35.80;;;;;;10356583;28;20317;-74
2022/05/06 02:56:00;;;;;;;6.93;6.43;;;16.80;35.90;;;;;;10357500;28;20222;-74
2022/05/06 03:01:03;;;;;;;6.60;6.00;;;16.80;36.30;;;;;;10357308;28;20571;-74
2022/05/06 03:06:06;;;;;;;7.00;6.50;;;16.80;36.00;;;;;;10356221;28;20237;-75
2022/05/06 03:11:11;;;;;;;6.83;6.33;;;16.80;36.10;;;;;;10353844;28;20230;-74
2022/05/06 03:16:14;;;;;;;7.33;6.83;;;16.80;36.50;;;;;;10353493;28;20714;-74
2022/05/06 03:21:17;;;;;;;7.70;6.87;;;16.70;36.00;;;;;;10356130;28;20230;-74
2022/05/06 03:26:22;;;;;;;7.20;6.60;;;16.70;36.00;;;;;;10351613;28;20596;-74
2022/05/06 03:31:26;;;;;;;7.37;6.77;;;16.70;36.40;;;;;;10356217;28;20233;-74
2022/05/06 03:36:30;;;;;;;7.80;7.20;;;16.60;36.30;;;;;;10351974;28;20226;-74
2022/05/06 03:41:35;;;;;;;7.97;7.37;;;16.60;36.20;;;;;;10355338;28;20222;-74
2022/05/06 03:46:38;;;;;;;8.03;7.43;;;16.60;36.60;;;;;;10353778;28;20226;-74
2022/05/06 03:51:45;;;;;;;7.83;7.23;;;16.50;36.20;;;;;;10356691;28;20222;-74
2022/05/06 03:56:50;;;;;;;6.97;6.47;;;16.50;37.10;;;;;;10354423;28;20233;-74
2022/05/06 04:01:53;;;;;;;8.00;7.23;;;16.50;36.60;;;;;;10362466;28;20237;-74
2022/05/06 04:06:56;;;;;;;8.00;7.40;;;16.40;36.80;;;;;;10360263;28;21029;-74
2022/05/06 04:12:01;;;;;;;9.20;8.30;;;16.30;36.20;;;;;;10357553;28;20241;-74
2022/05/06 04:17:04;;;;;;;8.60;7.80;;;16.30;36.80;;;;;;10362924;28;20257;-74
2022/05/06 04:27:30;;;;;;;8.23;7.63;;;16.20;36.70;;;;;;10358817;28;20549;-74
2022/05/06 04:32:34;;;;;;;8.73;8.07;;;16.20;37.30;;;;;;10356150;28;20237;-74
2022/05/06 04:37:37;;;;;;;8.23;7.60;;;16.20;36.90;;;;;;10359809;28;20226;-74
2022/05/06 04:42:41;;;;;;;8.90;8.00;;;16.20;37.10;;;;;;10361119;28;20230;-74
2022/05/06 04:47:44;;;;;;;8.33;7.73;;;16.20;37.50;;;;;;10359870;28;20223;-74
2022/05/06 04:52:48;;;;;;;8.33;7.67;;;16.20;37.30;;;;;;10358123;28;20238;-74
2022/05/06 04:57:52;;;;;;;9.07;8.37;;;16.20;37.60;;;;;;10356147;28;20598;-74
2022/05/06 05:02:56;;;;;;;8.83;8.13;;;16.30;38.00;;;;;;10357533;28;20233;-74
2022/05/06 05:07:59;;;;;;;8.60;7.90;;;16.30;37.40;;;;;;10339359;28;20638;-74
2022/05/06 05:13:04;;;;;;;9.07;8.37;;;16.30;37.50;;;;;;10361233;28;20618;-74
2022/05/06 05:18:09;;;;;;;9.47;8.37;;;16.30;38.00;;;;;;10360361;28;20226;-73
2022/05/06 05:23:12;;;;;;;9.50;8.80;;;16.40;37.80;;;;;;10366281;28;20611;-74
2022/05/06 05:28:16;;;;;;;9.13;8.43;;;16.40;37.60;;;;;;10342027;28;20702;-74
2022/05/06 05:33:20;;;;;;;8.77;7.97;;;16.40;38.20;;;;;;10366620;28;20236;-74
2022/05/06 05:38:23;;;;;;;9.83;8.93;;;16.40;37.80;;;;;;10366167;28;20231;-74
2022/05/06 05:48:51;;;;;;;9.97;9.03;;;16.40;38.50;;;;;;10366783;28;20237;-73
2022/05/06 05:53:55;;;;;;;11.00;10.10;;;16.30;38.70;;;;;;10366840;28;20234;-74
2022/05/06 05:58:59;;;;;;;10.53;9.53;;;16.40;38.10;;;;;;10366481;28;20237;-73
2022/05/06 06:04:02;;;;;;;10.03;9.07;;;16.40;38.40;;;;;;10365759;28;20253;-74
2022/05/06 06:09:11;;;;;;;10.13;9.13;;;16.40;38.10;;;;;;10366251;28;20233;-74
2022/05/06 06:14:15;;;;;;;10.40;9.50;;;16.40;38.10;;;;;;10365171;28;20248;-74
2022/05/06 06:19:18;;;;;;;10.50;9.70;;;16.50;38.40;;;;;;10365781;28;20727;-74
2022/05/06 06:24:21;;;;;;;9.50;8.70;;;16.50;38.00;;;;;;10365394;28;20238;-74
2022/05/06 06:29:26;;;;;;;10.67;9.67;;;16.60;38.10;;;;;;10365182;28;20237;-74
2022/05/06 06:34:29;;;;;;;10.07;9.23;;;16.70;38.30;;;;;;10365621;28;20234;-72
2022/05/06 06:39:33;;;;;;;9.23;8.43;;;16.70;37.80;;;;;;10367483;28;20722;-72
2022/05/06 06:44:37;;;;;;;9.20;8.40;;;16.80;37.80;;;;;;10366494;28;20261;-72
2022/05/06 06:49:41;;;;;;;9.33;8.57;;;16.80;37.90;;;;;;10366658;28;20264;-72
2022/05/06 06:54:44;;;;;;;9.47;8.47;;;16.90;37.80;;;;;;10365031;28;21016;-72
2022/05/06 06:59:48;;;;;;;9.17;8.37;;;16.90;37.50;;;;;;10364627;28;20610;-72
2022/05/06 07:04:52;;;;;;;8.77;7.90;;;17.00;37.70;;;;;;10364477;28;20230;-73
2022/05/06 07:15:17;;;;;;;8.60;7.80;;;17.10;37.60;;;;;;10364314;28;20777;-72
2022/05/06 07:20:20;;;;;;;8.90;8.20;;;17.10;37.60;;;;;;10364410;28;20265;-72
2022/05/06 07:25:24;;;;;;;8.53;7.80;;;17.20;37.70;;;;;;10367971;28;20238;-72
2022/05/06 07:30:29;;;;;;;8.93;8.03;;;17.20;37.50;;;;;;10372442;28;20238;-72
2022/05/06 07:35:32;;;;;;;8.63;7.87;;;17.30;37.30;;;;;;10372440;28;20234;-72
2022/05/06 07:40:35;;;;;;;7.73;7.13;;;17.30;37.30;;;;;;10372042;28;20231;-72
2022/05/06 07:45:40;;;;;;;8.33;7.63;;;17.40;37.40;;;;;;10371893;28;20234;-72
2022/05/06 07:50:45;;;;;;;7.73;7.03;;;17.40;37.40;;;;;;10372351;28;20289;-72
2022/05/06 07:55:48;;;;;;;8.37;7.20;;;17.40;37.10;;;;;;10371343;28;20234;-72
2022/05/06 08:00:52;;;;;;;8.40;7.60;;;17.50;37.20;;;;;;10370996;28;20234;-72
2022/05/06 08:05:57;;;;;;;7.63;6.87;;;17.50;37.20;;;;;;10371268;28;20245;-72
2022/05/06 08:11:01;;;;;;;7.53;6.77;;;17.60;37.20;;;;;;10371860;28;20234;-73
2022/05/06 08:16:06;;;;;;;8.23;7.50;;;17.70;37.00;;;;;;10370492;28;20304;-72
2022/05/06 08:21:09;;;;;;;7.90;7.30;;;17.70;37.00;;;;;;10369805;28;20238;-73
2022/05/06 08:26:12;;;;;;;7.57;6.97;;;17.80;37.00;;;;;;10370110;28;20244;-73
2022/05/06 08:31:17;;;;;;;7.70;7.00;;;17.80;37.10;;;;;;10369624;28;20740;-75
2022/05/06 08:36:24;;;;;;;7.77;7.07;;;17.80;37.40;;;;;;10368137;28;20253;-74
2022/05/06 08:41:28;;;;;;;7.50;6.87;;;17.90;37.40;;;;;;10366359;28;20715;-74
2022/05/06 08:51:56;;;;;;;7.10;6.50;;;17.90;37.50;;;;;;10370205;28;20740;-75
2022/05/06 08:57:00;;;;;;;7.70;7.10;;;17.90;37.50;;;;;;10369600;28;20230;-74
2022/05/06 09:02:04;;;;;;;7.27;6.67;;;17.90;37.30;;;;;;10367057;28;20309;-75
2022/05/06 09:07:17;;;;;;;7.40;6.70;;;17.90;37.50;;;;;;10368458;28;20226;-74
2022/05/06 09:12:44;;;;;;;6.73;6.23;;;17.90;37.60;;;;;;10368409;28;20711;-73
2022/05/06 09:17:49;;;;;;;6.37;5.87;;;17.80;37.80;;;;;;10367738;28;20222;-74
2022/05/06 09:22:53;;;;;;;6.93;6.27;;;17.80;37.50;;;;;;10367356;28;20306;-74
2022/05/06 09:27:56;;;;;;;6.63;6.03;;;17.80;37.50;;;;;;10358908;28;20234;-73
2022/05/06 09:33:01;;;;;;;6.47;5.87;;;17.70;37.40;;;;;;10367694;28;20325;-73
2022/05/06 09:38:16;;;;;;;6.13;5.63;;;17.70;37.60;;;;;;10367295;28;20234;-74
2022/05/06 09:43:21;;;;;;;6.40;5.90;;;17.70;38.30;;;;;;10367245;28;20232;-74
2022/05/06 09:48:25;;;;;;;6.73;6.03;;;17.70;37.50;;;;;;10366643;28;20230;-74
2022/05/06 09:53:37;;;;;;;6.40;5.70;;;17.70;37.60;;;;;;10367010;28;20234;-74
2022/05/06 09:58:40;;;;;;;7.43;5.97;;;17.70;38.50;;;;;;10366658;28;20244;-74
2022/05/06 10:03:45;;;;;;;6.43;5.87;;;17.70;38.00;;;;;;10367017;28;20820;-73
2022/05/06 10:08:50;;;;;;;6.60;6.00;;;17.60;38.50;;;;;;10367268;28;20236;-75
2022/05/06 10:13:58;;;;;;;6.73;6.23;;;17.60;38.10;;;;;;10367396;28;20229;-75
2022/05/06 10:19:03;;;;;;;5.87;5.27;;;17.60;38.00;;;;;;10366209;28;20317;-74
2022/05/06 10:24:15;;;;;;;7.47;5.83;;;17.60;38.20;;;;;;10365989;28;20702;-74
2022/05/06 10:35:36;;;;;;;6.40;5.70;;;17.50;38.80;;;;;;10322381;28;20231;-74
2022/05/06 10:40:51;;;;;;;5.93;5.33;;;17.50;38.30;;;;;;10323882;28;20321;-74
2022/05/06 10:45:55;;;;;;;6.60;6.00;;;17.50;38.60;;;;;;10324657;28;20236;-74
2022/05/06 10:51:20;;;;;;;7.33;6.30;;;17.50;38.30;;;;;;10329252;28;20222;-74
2022/05/06 10:56:24;;;;;;;8.20;6.83;;;17.40;39.30;;;;;;10364962;28;20639;-74
2022/05/06 11:01:38;;;;;;;6.80;6.20;;;17.50;38.70;;;;;;10364333;28;20765;-73
2022/05/06 11:06:43;;;;;;;6.93;6.20;;;17.50;38.70;;;;;;10329469;28;20235;-73
2022/05/06 11:11:46;;;;;;;7.13;6.53;;;17.50;39.30;;;;;;10351294;28;20329;-73
2022/05/06 11:16:49;;;;;;;6.67;6.13;;;17.50;38.80;;;;;;10364208;28;20240;-73
2022/05/06 11:22:06;;;;;;;11.00;10.00;;;17.50;38.70;;;;;;10364371;28;20651;-73
2022/05/06 11:27:13;;;;;;;7.93;6.90;;;17.50;39.70;;;;;;10363745;28;20257;-73
2022/05/06 11:32:18;;;;;;;8.10;7.40;;;17.50;39.00;;;;;;10363977;28;20720;-73
2022/05/06 11:37:23;;;;;;;7.67;6.97;;;17.60;39.10;;;;;;10363539;28;20325;-73
2022/05/06 11:42:26;;;;;;;6.70;6.20;;;17.60;39.60;;;;;;10363561;28;20244;-74
2022/05/06 11:47:29;;;;;;;7.43;6.83;;;17.60;39.40;;;;;;10363520;28;20325;-73
2022/05/06 11:52:35;;;;;;;6.90;6.37;;;17.70;39.60;;;;;;10379618;28;20264;-73
2022/05/06 11:57:40;;;;;;;7.63;7.03;;;17.80;39.70;;;;;;10357459;28;20235;-75
2022/05/06 12:02:49;;;;;;;7.80;7.10;;;18.00;40.20;;;;;;10360787;28;20234;-74
2022/05/06 12:07:53;;;;;;;8.10;7.40;;;18.10;39.70;;;;;;10334744;28;20246;-75
2022/05/06 12:12:58;;;;;;;8.13;7.43;;;18.10;39.00;;;;;;10326354;28;20618;-74
2022/05/06 12:18:05;;;;;;;8.13;7.33;;;18.20;39.30;;;;;;10328932;28;20227;-74
2022/05/06 12:23:11;;;;;;;8.07;7.30;;;18.20;39.20;;;;;;10330031;28;20246;-74
2022/05/06 12:28:16;;;;;;;6.77;6.17;;;18.30;39.30;;;;;;10330106;28;20239;-74
2022/05/06 12:33:19;;;;;;;7.73;6.93;;;18.40;39.00;;;;;;10403216;28;20930;-74
2022/05/06 12:38:26;;;;;;;8.27;7.47;;;18.40;39.00;;;;;;10377944;28;20622;-74
2022/05/06 12:43:31;;;;;;;7.73;7.13;;;18.60;39.30;;;;;;10346830;28;20241;-77
2022/05/06 12:54:11;;;;;;;8.10;7.50;;;18.70;38.50;;;;;;10284525;28;20626;-77
2022/05/06 12:59:16;;;;;;;9.33;8.50;;;18.70;38.90;;;;;;10349812;28;20261;-77
2022/05/06 13:04:23;;;;;;;9.60;8.27;;;18.70;39.20;;;;;;10369696;28;20316;-77
2022/05/06 13:09:29;;;;;;;8.77;7.97;;;18.80;39.30;;;;;;10375665;28;20244;-76
2022/05/06 13:14:32;;;;;;;8.20;7.50;;;18.90;39.30;;;;;;10369514;28;20230;-76
2022/05/06 13:19:36;;;;;;;8.60;7.87;;;19.00;39.40;;;;;;10370003;28;20226;-76
2022/05/06 13:24:40;;;;;;;8.77;8.07;;;19.10;39.10;;;;;;10371373;28;20241;-77
2022/05/06 13:29:44;;;;;;;7.97;7.27;;;19.10;39.20;;;;;;10370987;28;20722;-76
2022/05/06 13:34:47;;;;;;;8.20;7.57;;;19.20;39.10;;;;;;10370652;28;20258;-77
2022/05/06 13:39:52;;;;;;;9.43;8.60;;;19.30;39.00;;;;;;10370084;28;20234;-77
2022/05/06 13:44:55;;;;;;;9.17;8.27;;;19.40;38.90;;;;;;10370836;28;20237;-77
2022/05/06 13:49:58;;;;;;;9.13;8.40;;;19.40;38.90;;;;;;10361154;28;20231;-77
2022/05/06 13:55:09;;;;;;;10.30;9.47;;;19.50;38.90;;;;;;10329570;28;20254;-77
2022/05/06 14:00:19;;;;;;;9.97;9.00;;;19.50;38.90;;;;;;10327961;28;20262;-76
2022/05/06 14:05:23;;;;;;;9.20;8.50;;;19.60;38.80;;;;;;10328473;28;20230;-76
2022/05/06 14:10:28;;;;;;;9.83;8.93;;;19.60;38.80;;;;;;10339686;28;20461;-74
2022/05/06 14:15:31;;;;;;;10.70;9.80;;;19.70;39.00;;;;;;10359058;28;20241;-74
2022/05/06 14:20:34;;;;;;;9.70;8.87;;;19.70;39.00;;;;;;10366792;28;20240;-75
2022/05/06 14:25:39;;;;;;;10.80;9.70;;;19.70;39.00;;;;;;10365899;28;20261;-75
2022/05/06 14:30:44;;;;;;;10.07;9.17;;;19.70;39.70;;;;;;10359636;28;20230;-74
2022/05/06 14:35:47;;;;;;;9.50;8.50;;;19.60;39.40;;;;;;10324713;28;20779;-74
2022/05/06 14:40:51;;;;;;;11.50;10.50;;;19.50;39.80;;;;;;10324317;28;20238;-74
2022/05/06 14:45:55;;;;;;;11.77;10.67;;;19.40;40.40;;;;;;10324763;28;20238;-74
2022/05/06 14:50:59;;;;;;;10.90;9.93;;;19.30;39.80;;;;;;10345457;28;20237;-72
2022/05/06 14:56:04;;;;;;;10.80;9.80;;;19.30;40.00;;;;;;10362111;28;20237;-72
2022/05/06 15:01:08;;;;;;;11.67;10.67;;;19.30;40.70;;;;;;10361496;28;20232;-73
2022/05/06 15:06:12;;;;;;;11.00;10.07;;;19.30;40.50;;;;;;10361742;28;20244;-73
2022/05/06 15:11:16;;;;;;;11.17;10.27;;;19.30;40.60;;;;;;10362394;28;20230;-73
2022/05/06 15:16:20;;;;;;;11.53;10.43;;;19.40;40.80;;;;;;10361941;28;20226;-73
2022/05/06 15:21:23;;;;;;;11.43;10.43;;;19.40;40.30;;;;;;10360674;28;20609;-73
2022/05/06 15:26:28;;;;;;;10.60;9.80;;;19.40;40.40;;;;;;10329591;28;20707;-73
2022/05/06 15:31:32;;;;;;;9.80;8.90;;;19.40;40.90;;;;;;10363662;28;20230;-73
2022/05/06 15:36:35;;;;;;;10.00;9.17;;;19.50;40.60;;;;;;10364655;28;20238;-73
2022/05/06 15:41:40;;;;;;;10.37;9.47;;;19.50;40.60;;;;;;10364433;28;20229;-72
2022/05/06 15:46:43;;;;;;;10.77;9.87;;;19.60;41.10;;;;;;10358951;28;20328;-75
2022/05/06 15:51:46;;;;;;;10.47;9.57;;;19.70;40.70;;;;;;10358094;28;20245;-73
2022/05/06 15:56:51;;;;;;;10.90;9.93;;;19.70;40.60;;;;;;10366613;28;20249;-73
2022/05/06 16:01:54;;;;;;;11.13;10.17;;;19.70;40.90;;;;;;10365691;28;20317;-74
2022/05/06 16:06:57;;;;;;;9.23;8.43;;;19.60;40.50;;;;;;10368641;28;20226;-74
2022/05/06 16:12:02;;;;;;;6.40;5.90;;;19.60;40.40;;;;;;10365611;28;20229;-74
2022/05/06 16:17:11;;;;;;;4.30;4.00;;;19.50;39.60;;;;;;10358540;28;20324;-73
2022/05/06 16:22:14;;;;;;;3.70;3.40;;;19.40;39.20;;;;;;10357118;28;20303;-73
2022/05/06 16:27:21;;;;;;;3.53;3.27;;;19.40;39.30;;;;;;10354875;28;20230;-74
2022/05/06 16:32:24;;;;;;;3.50;3.30;;;19.30;39.30;;;;;;10358659;28;20241;-73
2022/05/06 16:37:27;;;;;;;3.70;3.40;;;19.30;39.50;;;;;;10355548;28;20238;-73
2022/05/06 16:42:32;;;;;;;4.10;3.80;;;19.20;39.40;;;;;;10353876;28;20234;-74
2022/05/06 16:47:35;;;;;;;3.90;3.60;;;19.10;40.40;;;;;;10354661;28;20226;-73
2022/05/06 16:52:39;;;;;;;4.57;4.27;;;19.10;39.50;;;;;;10354894;28;20226;-73
2022/05/06 16:57:45;;;;;;;4.50;4.10;;;19.00;39.70;;;;;;10350972;28;20229;-74
2022/05/06 17:02:49;;;;;;;4.40;4.10;;;19.00;40.10;;;;;;10356133;28;21013;-73
2022/05/06 17:07:53;;;;;;;4.13;3.83;;;19.00;39.90;;;;;;10355309;28;20222;-73
2022/05/06 17:12:57;;;;;;;4.20;3.90;;;19.00;39.80;;;;;;10357964;28;20226;-74
2022/05/06 17:18:00;;;;;;;4.17;3.87;;;19.00;40.00;;;;;;10354532;28;20245;-73
2022/05/06 17:23:09;;;;;;;4.20;3.90;;;19.00;39.70;;;;;;10342587;28;20227;-73
2022/05/06 17:28:14;;;;;;;4.30;4.00;;;19.00;39.70;;;;;;10340823;28;20223;-74
2022/05/06 17:33:17;;;;;;;4.07;3.87;;;18.90;39.70;;;;;;10340690;28;20972;-73
2022/05/06 17:38:20;;;;;;;4.17;3.87;;;18.90;39.60;;;;;;10344614;28;20219;-74
2022/05/06 17:43:25;;;;;;;4.73;4.43;;;18.90;39.70;;;;;;10357797;28;20249;-74
2022/05/06 17:48:28;;;;;;;4.83;4.50;;;18.90;39.80;;;;;;10354510;28;20653;-74
2022/05/06 17:53:31;;;;;;;4.80;4.50;;;18.90;39.80;;;;;;10356721;28;20226;-74
2022/05/06 17:58:36;;;;;;;4.43;4.13;;;18.90;39.80;;;;;;10355266;28;20227;-74
2022/05/06 18:03:39;;;;;;;5.57;5.17;;;18.80;39.90;;;;;;10353840;28;20230;-74
2022/05/06 18:08:43;;;;;;;5.30;5.00;;;18.80;39.70;;;;;;10357226;28;20234;-74
2022/05/06 18:13:48;;;;;;;5.33;4.93;;;18.70;39.80;;;;;;10357969;28;20234;-74
2022/05/06 18:18:52;;;;;;;5.80;5.40;;;18.60;40.10;;;;;;10355616;28;20596;-74
2022/05/06 18:23:55;;;;;;;6.13;5.63;;;18.60;40.10;;;;;;10356304;28;20226;-74
2022/05/06 18:28:59;;;;;;;5.60;5.10;;;18.50;40.00;;;;;;10352225;28;20226;-74
2022/05/06 18:34:02;;;;;;;5.50;5.10;;;18.50;40.30;;;;;;10350969;28;20222;-74
2022/05/06 18:39:06;;;;;;;6.57;6.07;;;18.50;40.10;;;;;;10353292;28;20230;-74
2022/05/06 18:44:10;;;;;;;7.10;6.60;;;18.50;40.30;;;;;;10352269;28;20233;-74
2022/05/06 18:49:13;;;;;;;6.70;6.20;;;18.40;40.50;;;;;;10353771;28;20233;-74
2022/05/06 18:54:16;;;;;;;6.57;5.97;;;18.40;40.40;;;;;;10352094;28;20241;-74
2022/05/06 18:59:21;;;;;;;6.20;5.70;;;18.40;40.40;;;;;;10353637;28;20975;-74
2022/05/06 19:04:26;;;;;;;6.80;6.30;;;18.40;40.60;;;;;;10350460;28;20234;-74
2022/05/06 19:09:29;;;;;;;6.57;6.17;;;18.40;40.50;;;;;;10358262;28;20320;-74
2022/05/06 19:14:34;;;;;;;7.43;6.93;;;18.40;40.50;;;;;;10354276;28;20499;-74
2022/05/06 19:19:38;;;;;;;7.43;6.83;;;18.40;40.90;;;;;;10352124;28;21025;-74
2022/05/06 19:24:44;;;;;;;7.00;6.50;;;18.40;40.70;;;;;;10372997;28;20234;-74
2022/05/06 19:29:49;;;;;;;6.47;6.00;;;18.40;40.80;;;;;;10374831;28;20238;-74
2022/05/06 19:34:52;;;;;;;7.30;6.70;;;18.40;40.90;;;;;;10371402;28;20230;-74
2022/05/06 19:39:56;;;;;;;7.13;6.63;;;18.30;40.90;;;;;;10372448;28;20257;-74
2022/05/06 19:45:01;;;;;;;6.67;6.27;;;18.30;40.90;;;;;;10370175;28;20235;-75
2022/05/06 19:50:05;;;;;;;7.37;6.67;;;18.30;41.50;;;;;;10356418;28;20242;-75
2022/05/06 19:55:09;;;;;;;6.17;5.67;;;18.30;41.10;;;;;;10349438;28;20597;-75
2022/05/06 20:00:15;;;;;;;7.47;6.77;;;18.30;41.00;;;;;;10375303;28;20234;-75
2022/05/06 20:05:19;;;;;;;7.50;6.90;;;18.20;41.30;;;;;;10367761;28;20230;-74
2022/05/06 20:10:22;;;;;;;8.03;7.47;;;18.20;40.90;;;;;;10376379;28;20695;-75
2022/05/06 20:15:27;;;;;;;7.07;6.57;;;18.20;40.90;;;;;;10378304;28;20230;-73
2022/05/06 20:20:30;;;;;;;8.60;7.90;;;18.10;41.20;;;;;;10376938;28;20236;-74
2022/05/06 20:25:33;;;;;;;8.97;8.27;;;18.10;41.20;;;;;;10376831;28;20722;-73
2022/05/06 20:30:38;;;;;;;8.27;7.67;;;18.00;41.30;;;;;;10374450;28;20734;-74
2022/05/06 20:35:41;;;;;;;9.43;8.73;;;18.00;41.80;;;;;;10369995;28;20230;-74
2022/05/06 20:40:45;;;;;;;8.70;8.00;;;18.00;41.50;;;;;;10368072;28;20233;-74
2022/05/06 20:45:49;;;;;;;9.63;8.83;;;18.00;41.50;;;;;;10345016;28;20310;-74
2022/05/06 20:50:53;;;;;;;8.27;7.67;;;18.00;41.80;;;;;;10369961;28;20277;-74
2022/05/06 20:55:56;;;;;;;10.03;9.17;;;18.00;41.50;;;;;;10369218;28;20266;-74
2022/05/06 21:01:01;;;;;;;11.10;10.10;;;18.00;41.60;;;;;;10369389;28;20771;-74
2022/05/06 21:06:04;;;;;;;11.83;10.83;;;18.00;41.80;;;;;;10368987;28;20230;-74
2022/05/06 21:16:30;;;;;;;11.70;10.50;;;17.90;41.40;;;;;;10368694;28;20317;-74
2022/05/06 21:21:34;;;;;;;12.70;11.70;;;17.80;41.90;;;;;;10368491;28;20230;-74
2022/05/06 21:26:37;;;;;;;11.97;11.00;;;17.80;41.80;;;;;;10368058;28;20717;-74
2022/05/06 21:31:42;;;;;;;11.77;10.83;;;17.80;41.90;;;;;;10368505;28;20246;-74
2022/05/06 21:36:45;;;;;;;11.30;10.30;;;17.80;42.10;;;;;;10367493;28;20239;-73
2022/05/06 21:41:48;;;;;;;11.90;10.93;;;17.80;41.80;;;;;;10366822;28;20245;-74
2022/05/06 21:46:53;;;;;;;12.77;11.77;;;17.80;41.80;;;;;;10367286;28;20241;-74
2022/05/06 21:51:56;;;;;;;12.90;11.90;;;17.80;42.20;;;;;;10367483;28;20260;-74
2022/05/06 21:57:00;;;;;;;11.87;10.87;;;17.80;41.90;;;;;;10382324;28;20310;-73
2022/05/06 22:02:04;;;;;;;12.33;11.43;;;17.80;42.00;;;;;;10407725;28;20236;-74
2022/05/06 22:07:10;;;;;;;12.00;11.10;;;17.80;42.30;;;;;;10407706;28;20681;-74
2022/05/06 22:12:13;;;;;;;12.17;11.27;;;17.80;42.00;;;;;;10377057;28;20715;-74
2022/05/06 22:17:18;;;;;;;12.10;11.10;;;17.80;42.00;;;;;;10366061;28;20236;-74
2022/05/06 22:22:21;;;;;;;10.97;9.97;;;17.70;42.20;;;;;;10325643;28;24830;-73
2022/05/06 22:27:25;;;;;;;9.73;8.93;;;17.70;41.90;;;;;;10340711;28;20230;-74
2022/05/06 22:32:30;;;;;;;12.80;11.80;;;17.70;41.90;;;;;;10365899;28;20693;-74
2022/05/06 22:37:37;;;;;;;12.00;11.10;;;17.70;42.40;;;;;;10365643;28;20604;-74
2022/05/06 22:48:02;;;;;;;12.87;11.87;;;17.70;42.20;;;;;;10365263;28;20312;-74
2022/05/06 22:53:06;;;;;;;11.77;10.87;;;17.70;42.40;;;;;;10392687;28;20230;-74
2022/05/06 22:58:09;;;;;;;12.17;11.27;;;17.70;42.20;;;;;;10368081;28;20237;-74
2022/05/06 23:03:13;;;;;;;12.07;11.07;;;17.70;42.20;;;;;;10364872;28;20226;-74
2022/05/06 23:08:17;;;;;;;12.33;11.07;;;17.60;42.30;;;;;;10364605;28;20314;-74
2022/05/06 23:13:20;;;;;;;11.93;10.93;;;17.60;42.20;;;;;;10330691;28;20222;-74
2022/05/06 23:18:25;;;;;;;11.40;10.50;;;17.60;42.30;;;;;;10364652;28;20230;-74
2022/05/06 23:23:28;;;;;;;12.13;11.23;;;17.60;42.60;;;;;;10364479;28;20296;-74
2022/05/06 23:28:31;;;;;;;9.67;8.87;;;17.60;42.30;;;;;;10364468;28;20316;-73
2022/05/06 23:33:36;;;;;;;11.20;10.30;;;17.60;42.20;;;;;;10364269;28;20230;-74
2022/05/06 23:38:39;;;;;;;12.70;11.60;;;17.60;42.70;;;;;;10369125;28;20827;-74
2022/05/06 23:43:43;;;;;;;13.00;12.00;;;17.60;42.40;;;;;;10364437;28;20244;-74
2022/05/06 23:48:47;;;;;;;13.13;12.03;;;17.50;42.40;;;;;;10364178;28;20309;-74
2022/05/06 23:53:50;;;;;;;11.43;10.53;;;17.50;43.40;;;;;;10364053;28;20317;-74
2022/05/06 23:58:54;;;;;;;12.67;11.70;;;17.50;42.50;;;;;;10363316;28;20230;-74
